Time;durP1;ratioP1;P1;durP2;ratioP2;P2;SDS_P1;SDS_P2;PMS_P1;PMS_P2;Temp;Humidity;BMP_temperature;BMP_pressure;BME280_temperature;BME280_humidity;BME280_pressure;Samples;Min_cycle;Max_cycle;Signal;HPM_P1;HPM_P2
2022/01/29 00:00:03;;;;;;;8.23;3.40;;;;;;;7.26;60.96;102617.13;5027965;28;20464;-75
2022/01/29 00:02:28;;;;;;;9.93;3.85;;;;;;;7.31;59.89;102609.50;5031621;28;20056;-75
2022/01/29 00:04:53;;;;;;;7.78;3.65;;;;;;;7.41;60.11;102608.84;5030463;28;20395;-75
2022/01/29 00:07:19;;;;;;;7.38;3.63;;;;;;;7.53;59.46;102604.81;5030166;28;20107;-75
2022/01/29 00:09:47;;;;;;;9.45;4.05;;;;;;;7.55;59.53;102607.44;5029554;28;20033;-75
2022/01/29 00:12:12;;;;;;;9.10;3.88;;;;;;;7.46;60.30;102609.84;5027960;28;21023;-75
2022/01/29 00:14:38;;;;;;;7.80;3.55;;;;;;;7.47;60.59;102606.38;5022342;28;20042;-75
2022/01/29 00:17:04;;;;;;;8.82;3.88;;;;;;;7.42;60.77;102601.13;5024316;28;20072;-75
2022/01/29 00:19:29;;;;;;;8.93;3.65;;;;;;;7.51;60.37;102595.28;5021266;28;20037;-75
2022/01/29 00:21:56;;;;;;;8.27;3.28;;;;;;;7.30;60.53;102595.69;5026239;28;20141;-75
2022/01/29 00:24:22;;;;;;;9.85;3.33;;;;;;;7.48;60.05;102600.38;5009082;28;20038;-75
2022/01/29 00:26:47;;;;;;;8.27;4.22;;;;;;;7.38;60.70;102599.31;5023656;28;20489;-75
2022/01/29 00:29:21;;;;;;;9.18;3.53;;;;;;;7.34;61.15;102594.06;5032807;28;20029;-79
2022/01/29 00:31:47;;;;;;;10.27;4.23;;;;;;;7.43;61.31;102589.09;5026010;28;20045;-75
2022/01/29 00:34:12;;;;;;;11.18;3.88;;;;;;;7.54;59.79;102587.59;5031739;28;20289;-77
2022/01/29 00:36:38;;;;;;;7.90;3.60;;;;;;;7.55;60.17;102577.25;5031875;28;20029;-77
2022/01/29 00:39:04;;;;;;;6.45;3.10;;;;;;;7.53;60.70;102591.00;5032070;28;20402;-77
2022/01/29 00:41:29;;;;;;;8.23;3.67;;;;;;;7.51;60.38;102583.22;5041341;28;20036;-77
2022/01/29 00:43:55;;;;;;;9.00;3.72;;;;;;;7.41;60.49;102591.63;5026989;28;20033;-77
2022/01/29 00:46:20;;;;;;;7.75;3.33;;;;;;;7.54;61.11;102585.00;5028582;28;20045;-76
2022/01/29 00:48:46;;;;;;;10.48;4.03;;;;;;;7.43;61.13;102581.31;5028246;28;20038;-77
2022/01/29 00:51:11;;;;;;;8.25;4.30;;;;;;;7.47;61.63;102577.94;5029027;28;20041;-77
2022/01/29 00:53:37;;;;;;;8.15;3.42;;;;;;;7.57;59.84;102572.13;5029002;28;20030;-77
2022/01/29 00:56:06;;;;;;;7.75;4.70;;;;;;;7.49;61.32;102576.28;5029733;28;20498;-77
2022/01/29 00:58:32;;;;;;;8.50;3.55;;;;;;;7.49;60.94;102577.16;5028906;28;20037;-77
2022/01/29 01:01:00;;;;;;;12.10;3.78;;;;;;;7.51;60.81;102572.00;5033189;28;20037;-77
2022/01/29 01:03:25;;;;;;;8.30;3.53;;;;;;;7.52;60.09;102568.59;5032680;28;20126;-77
2022/01/29 01:05:51;;;;;;;7.78;3.53;;;;;;;7.51;60.64;102574.59;5032152;28;20487;-77
2022/01/29 01:08:16;;;;;;;8.43;4.43;;;;;;;7.35;61.62;102568.22;5026296;28;20478;-77
2022/01/29 01:10:42;;;;;;;8.07;3.28;;;;;;;7.38;61.54;102568.28;5027168;28;20435;-77
2022/01/29 01:13:08;;;;;;;8.93;4.00;;;;;;;7.30;61.23;102575.03;5031937;28;20132;-77
2022/01/29 01:15:33;;;;;;;7.07;3.53;;;;;;;7.47;60.79;102583.09;5029442;28;20581;-77
2022/01/29 01:17:59;;;;;;;7.45;3.28;;;;;;;7.46;60.53;102577.09;5027954;28;20037;-77
2022/01/29 01:20:25;;;;;;;9.32;3.75;;;;;;;7.43;61.58;102579.63;5043925;28;20044;-77
2022/01/29 01:22:50;;;;;;;10.07;4.25;;;;;;;7.39;61.56;102576.91;5042101;28;20091;-77
2022/01/29 01:25:15;;;;;;;12.32;4.10;;;;;;;7.39;61.84;102577.78;5035626;28;20055;-77
2022/01/29 01:27:41;;;;;;;7.40;3.63;;;;;;;7.52;61.90;102573.75;5027186;28;20850;-77
2022/01/29 01:30:07;;;;;;;7.72;3.22;;;;;;;7.41;62.01;102568.34;5029737;28;20049;-77
2022/01/29 01:32:33;;;;;;;8.43;3.67;;;;;;;7.41;62.62;102564.88;5029088;28;20390;-77
2022/01/29 01:35:09;;;;;;;8.48;4.13;;;;;;;7.50;62.25;102554.72;5034112;28;20041;-77
2022/01/29 01:37:43;;;;;;;7.88;3.67;;;;;;;7.61;61.57;102546.34;5031678;28;20088;-77
2022/01/29 01:40:10;;;;;;;9.13;3.88;;;;;;;7.59;60.83;102547.16;5028704;28;20045;-77
2022/01/29 01:42:35;;;;;;;8.57;4.20;;;;;;;7.59;61.26;102541.97;5025801;28;20080;-77
2022/01/29 01:45:01;;;;;;;7.88;3.80;;;;;;;7.60;61.13;102541.16;5038084;28;20038;-77
2022/01/29 01:47:26;;;;;;;9.13;3.53;;;;;;;7.56;61.10;102537.63;5025593;28;20037;-77
2022/01/29 01:49:52;;;;;;;7.63;3.55;;;;;;;7.49;61.85;102528.03;5029353;28;20068;-77
2022/01/29 01:52:18;;;;;;;7.90;3.63;;;;;;;7.48;61.71;102525.41;5026698;28;20038;-77
2022/01/29 01:54:44;;;;;;;7.22;3.83;;;;;;;7.50;61.93;102529.75;5027907;28;20072;-76
2022/01/29 01:57:10;;;;;;;8.30;3.45;;;;;;;7.52;61.66;102522.03;5026346;28;20105;-77
2022/01/29 01:59:35;;;;;;;9.55;3.80;;;;;;;7.48;61.93;102518.50;5036115;28;20108;-77
2022/01/29 02:02:03;;;;;;;7.38;3.63;;;;;;;7.47;61.00;102513.28;5032227;28;20500;-77
2022/01/29 02:04:30;;;;;;;8.45;3.78;;;;;;;7.40;62.60;102512.34;5034599;28;20025;-77
2022/01/29 02:06:56;;;;;;;7.03;3.83;;;;;;;7.63;61.05;102513.63;5031724;28;20037;-79
2022/01/29 02:09:24;;;;;;;9.75;3.72;;;;;;;7.63;60.86;102494.66;5035063;28;20482;-79
2022/01/29 02:11:50;;;;;;;8.70;4.43;;;;;;;7.60;59.63;102492.00;5031734;28;20033;-79
2022/01/29 02:14:17;;;;;;;10.85;4.15;;;;;;;7.59;60.52;102491.13;5032145;28;20478;-80
2022/01/29 02:16:43;;;;;;;7.82;4.07;;;;;;;7.58;60.81;102480.78;5029393;28;20045;-80
2022/01/29 02:19:08;;;;;;;10.63;4.45;;;;;;;7.66;60.72;102469.72;5028869;28;20030;-80
2022/01/29 02:21:36;;;;;;;8.10;3.88;;;;;;;7.66;59.84;102453.34;5027201;28;20133;-79
2022/01/29 02:24:02;;;;;;;9.52;4.40;;;;;;;7.59;60.67;102449.75;5030392;28;20037;-79
2022/01/29 02:26:27;;;;;;;7.85;3.80;;;;;;;7.55;61.31;102445.38;5029680;28;20033;-79
2022/01/29 02:28:54;;;;;;;8.82;4.43;;;;;;;7.51;60.66;102451.34;5029364;28;20124;-80
2022/01/29 02:31:20;;;;;;;11.38;4.10;;;;;;;7.55;61.00;102447.09;5027631;28;20029;-80
2022/01/29 02:33:45;;;;;;;7.13;3.53;;;;;;;7.69;59.21;102435.28;5033556;28;20075;-79
2022/01/29 02:36:11;;;;;;;11.35;5.07;;;;;;;7.52;60.75;102424.63;5027285;28;20037;-80
2022/01/29 02:38:37;;;;;;;7.38;3.75;;;;;;;7.60;59.73;102412.72;5028173;28;20045;-79
2022/01/29 02:41:05;;;;;;;8.45;4.25;;;;;;;7.53;61.18;102410.84;5028670;28;20167;-80
2022/01/29 02:43:44;;;;;;;8.50;3.95;;;;;;;7.62;59.82;102417.91;5026232;28;20046;-79
2022/01/29 02:48:46;;;;;;;11.23;4.30;;;;;;;7.68;60.00;102407.66;5024808;28;20482;-79
2022/01/29 02:51:12;;;;;;;9.70;4.20;;;;;;;7.64;60.05;102404.16;5027352;28;20095;-79
2022/01/29 02:53:37;;;;;;;8.50;4.30;;;;;;;7.67;60.56;102406.78;5025986;28;20030;-79
2022/01/29 02:56:03;;;;;;;10.75;3.95;;;;;;;7.74;60.65;102389.66;5025357;28;20038;-79
2022/01/29 02:58:29;;;;;;;9.60;4.68;;;;;;;7.65;59.82;102387.78;5029990;28;20073;-79
2022/01/29 03:00:54;;;;;;;10.40;4.47;;;;;;;7.60;61.24;102399.78;5028851;28;20137;-79
2022/01/29 03:03:20;;;;;;;9.15;4.82;;;;;;;7.60;60.37;102386.84;5027600;28;20037;-79
2022/01/29 03:05:45;;;;;;;16.10;4.43;;;;;;;7.58;61.18;102385.09;5040250;28;20037;-79
2022/01/29 03:08:11;;;;;;;11.40;5.07;;;;;;;7.75;60.23;102386.25;5043421;28;20028;-79
2022/01/29 03:10:37;;;;;;;9.00;4.38;;;;;;;7.73;59.77;102382.75;5029706;28;20062;-79
2022/01/29 03:13:03;;;;;;;10.85;4.10;;;;;;;7.73;60.30;102380.19;5036924;28;20041;-79
2022/01/29 03:15:28;;;;;;;8.65;4.15;;;;;;;7.57;60.60;102375.59;5030901;28;20741;-79
2022/01/29 03:17:54;;;;;;;8.52;4.43;;;;;;;7.70;59.73;102374.97;5030262;28;20041;-79
2022/01/29 03:20:19;;;;;;;6.75;3.35;;;;;;;7.69;59.20;102368.91;5029627;28;20485;-79
2022/01/29 03:22:45;;;;;;;10.23;4.43;;;;;;;7.80;59.98;102363.88;5026148;28;20116;-79
2022/01/29 03:25:10;;;;;;;8.10;3.70;;;;;;;7.66;60.42;102362.81;5033308;28;20372;-79
2022/01/29 03:27:36;;;;;;;9.27;4.22;;;;;;;7.68;60.32;102349.06;5025606;28;20069;-79
2022/01/29 03:30:04;;;;;;;9.77;4.63;;;;;;;7.68;61.00;102354.22;5029789;28;20072;-79
2022/01/29 03:32:30;;;;;;;7.35;3.55;;;;;;;7.59;60.50;102348.91;5032685;28;20057;-79
2022/01/29 03:34:55;;;;;;;10.38;4.38;;;;;;;7.63;61.69;102348.13;5032164;28;20057;-79
2022/01/29 03:37:21;;;;;;;10.10;3.95;;;;;;;7.76;60.64;102343.97;5034525;28;20029;-79
2022/01/29 03:39:47;;;;;;;9.52;4.18;;;;;;;7.86;59.00;102345.00;5030998;28;20037;-79
2022/01/29 03:42:14;;;;;;;11.45;4.82;;;;;;;7.65;60.96;102343.81;5030967;28;20041;-79
2022/01/29 03:44:40;;;;;;;9.27;4.15;;;;;;;7.66;60.10;102345.56;5030886;28;20029;-79
2022/01/29 03:47:06;;;;;;;7.22;3.80;;;;;;;7.63;60.41;102345.53;5042237;28;20120;-79
2022/01/29 03:49:32;;;;;;;8.63;3.65;;;;;;;7.68;61.60;102354.22;5028976;28;20265;-79
2022/01/29 03:51:57;;;;;;;8.25;3.72;;;;;;;7.76;60.14;102350.91;5029632;28;20029;-79
2022/01/29 03:54:23;;;;;;;10.13;4.38;;;;;;;7.72;60.68;102354.28;5030203;28;20045;-79
2022/01/29 03:56:48;;;;;;;10.68;4.00;;;;;;;7.69;61.85;102358.56;5026753;28;20034;-79
2022/01/29 03:59:14;;;;;;;9.82;4.38;;;;;;;7.67;61.71;102349.88;5034585;28;20029;-80
2022/01/29 04:01:39;;;;;;;9.98;4.13;;;;;;;7.59;61.02;102345.44;5035758;28;20088;-79
2022/01/29 04:04:05;;;;;;;9.10;4.18;;;;;;;7.73;61.66;102345.69;5029480;28;20401;-79
2022/01/29 04:06:31;;;;;;;10.75;4.20;;;;;;;7.69;62.55;102337.88;5022659;28;20582;-81
2022/01/29 04:08:57;;;;;;;8.27;4.10;;;;;;;7.75;62.28;102325.88;5023169;28;20048;-79
2022/01/29 04:11:23;;;;;;;8.10;4.00;;;;;;;7.59;61.64;102320.44;5021425;28;20117;-81
2022/01/29 04:13:49;;;;;;;9.60;4.30;;;;;;;7.73;62.21;102323.28;5030621;28;20140;-80
2022/01/29 04:16:17;;;;;;;8.02;4.05;;;;;;;7.78;61.75;102320.75;5021687;28;20040;-80
2022/01/29 04:18:43;;;;;;;11.57;4.70;;;;;;;7.64;62.02;102326.56;5024943;28;20033;-80
2022/01/29 04:21:09;;;;;;;8.43;3.95;;;;;;;7.63;63.05;102322.25;5029979;28;20081;-80
2022/01/29 04:23:35;;;;;;;13.25;4.20;;;;;;;7.57;62.77;102321.28;5040843;28;20542;-79
2022/01/29 04:26:02;;;;;;;9.85;3.88;;;;;;;7.59;63.34;102325.63;5035963;28;20044;-79
2022/01/29 04:28:32;;;;;;;10.20;4.72;;;;;;;7.63;62.34;102321.38;5033349;28;20025;-80
2022/01/29 04:31:02;;;;;;;7.45;4.90;;;;;;;7.59;62.48;102317.00;5038812;28;20057;-80
2022/01/29 04:33:28;;;;;;;9.75;4.20;;;;;;;7.61;62.10;102308.41;5036890;28;20109;-79
2022/01/29 04:35:58;;;;;;;8.38;3.95;;;;;;;7.54;63.34;102306.59;5046889;28;20116;-79
2022/01/29 04:38:24;;;;;;;10.13;4.32;;;;;;;7.57;63.01;102300.59;5036239;28;20539;-80
2022/01/29 04:40:50;;;;;;;6.85;3.85;;;;;;;7.59;63.30;102304.94;5033149;28;20475;-80
2022/01/29 04:43:15;;;;;;;11.30;4.53;;;;;;;7.63;63.24;102295.50;5034847;28;20034;-80
2022/01/29 04:45:41;;;;;;;11.55;4.60;;;;;;;7.58;62.82;102298.00;5031761;28;20117;-79
2022/01/29 04:48:07;;;;;;;8.82;4.07;;;;;;;7.48;63.75;102287.50;5031751;28;20061;-79
2022/01/29 04:50:32;;;;;;;7.13;3.55;;;;;;;7.57;63.55;102290.25;5018250;28;20040;-80
2022/01/29 04:52:58;;;;;;;8.98;4.22;;;;;;;7.62;63.90;102284.28;5033367;28;20406;-79
2022/01/29 04:55:23;;;;;;;9.57;3.63;;;;;;;7.54;64.46;102279.84;5034691;28;20070;-79
2022/01/29 04:57:49;;;;;;;5.72;3.05;;;;;;;7.50;64.09;102278.94;5033885;28;20056;-79
2022/01/29 05:00:20;;;;;;;5.88;2.90;;;;;;;7.60;64.44;102280.81;5035442;28;20037;-80
2022/01/29 05:02:51;;;;;;;5.50;3.05;;;;;;;7.67;63.96;102284.38;5041835;28;20029;-79
2022/01/29 05:05:17;;;;;;;7.70;3.35;;;;;;;7.68;63.24;102283.50;5031685;28;20454;-79
2022/01/29 05:07:42;;;;;;;6.50;3.15;;;;;;;7.55;64.47;102286.78;5030046;28;20112;-79
2022/01/29 05:10:08;;;;;;;6.05;2.90;;;;;;;7.62;64.95;102286.00;5032223;28;20064;-80
2022/01/29 05:13:00;;;;;;;6.38;2.85;;;;;;;7.63;65.33;102282.59;5038742;28;20029;-79
2022/01/29 05:28:58;;;;;;;4.00;2.30;;;;;;;7.53;66.82;102275.53;5033347;28;20163;-79
2022/01/29 05:31:24;;;;;;;8.50;2.50;;;;;;;7.53;66.87;102270.34;5042988;28;20795;-79
2022/01/29 05:33:49;;;;;;;5.47;2.15;;;;;;;7.63;66.13;102278.28;5034050;28;20040;-79
2022/01/29 05:36:15;;;;;;;7.65;3.08;;;;;;;7.65;66.48;102274.00;5031126;28;20038;-79
2022/01/29 05:38:40;;;;;;;6.15;2.67;;;;;;;7.58;66.53;102273.91;5031227;28;20053;-79
2022/01/29 05:41:06;;;;;;;4.40;2.25;;;;;;;7.67;65.78;102268.88;5038852;28;20055;-79
2022/01/29 05:43:32;;;;;;;4.53;2.40;;;;;;;7.68;65.97;102263.69;5031164;28;20044;-80
2022/01/29 05:45:58;;;;;;;4.38;2.30;;;;;;;7.62;66.65;102275.66;5033855;28;20618;-79
2022/01/29 05:48:23;;;;;;;3.15;1.73;;;;;;;7.62;66.34;102267.91;5034161;28;20038;-79
2022/01/29 05:50:49;;;;;;;3.97;1.60;;;;;;;7.63;65.90;102265.34;5034806;28;20025;-79
2022/01/29 05:53:14;;;;;;;2.80;1.73;;;;;;;7.53;66.01;102258.28;5035151;28;20016;-79
2022/01/29 05:55:40;;;;;;;4.35;1.80;;;;;;;7.62;65.79;102258.44;5034787;28;20040;-79
2022/01/29 05:58:05;;;;;;;3.55;1.90;;;;;;;7.50;66.73;102255.66;5030414;28;20134;-80
2022/01/29 06:00:30;;;;;;;2.35;1.42;;;;;;;7.63;66.75;102243.78;5033541;28;20034;-79
2022/01/29 06:03:05;;;;;;;3.25;1.80;;;;;;;7.52;66.75;102250.53;5034725;28;20037;-79
2022/01/29 06:05:31;;;;;;;3.53;1.38;;;;;;;7.57;67.24;102254.03;5032202;28;20087;-79
2022/01/29 06:07:56;;;;;;;3.83;1.42;;;;;;;7.55;68.29;102255.75;5033823;28;20033;-79
2022/01/29 06:10:23;;;;;;;3.05;1.85;;;;;;;7.57;67.83;102254.03;5042681;28;20033;-79
2022/01/29 06:13:12;;;;;;;2.17;1.33;;;;;;;7.38;69.40;102252.88;5044946;28;20506;-79
2022/01/29 06:15:50;;;;;;;2.47;1.38;;;;;;;7.53;69.52;102254.84;5037762;28;20041;-79
2022/01/29 06:18:19;;;;;;;2.75;1.15;;;;;;;7.46;69.61;102248.72;5026418;28;20029;-79
2022/01/29 06:20:53;;;;;;;3.15;1.35;;;;;;;7.52;69.29;102253.13;5031448;28;20017;-79
2022/01/29 06:23:38;;;;;;;2.23;1.13;;;;;;;7.41;70.51;102240.00;5037217;28;20108;-79
2022/01/29 06:26:07;;;;;;;3.15;1.00;;;;;;;7.49;70.56;102243.59;5044861;28;20037;-79
2022/01/29 06:28:33;;;;;;;1.60;0.98;;;;;;;7.56;70.13;102242.81;5036315;28;20453;-79
2022/01/29 06:30:59;;;;;;;2.28;1.25;;;;;;;7.52;70.10;102224.66;5034607;28;20032;-79
2022/01/29 06:33:25;;;;;;;1.83;1.10;;;;;;;7.58;70.07;102223.03;5032058;28;20037;-79
2022/01/29 06:35:50;;;;;;;1.50;0.90;;;;;;;7.48;70.32;102228.94;5039271;28;20509;-79
2022/01/29 06:38:16;;;;;;;1.15;0.98;;;;;;;7.54;69.65;102221.25;5032408;28;20032;-79
2022/01/29 06:40:43;;;;;;;1.35;0.82;;;;;;;7.51;69.88;102215.16;5022339;28;20125;-79
2022/01/29 06:43:09;;;;;;;1.58;0.70;;;;;;;7.55;70.33;102219.53;5031462;28;20029;-80
2022/01/29 06:45:36;;;;;;;1.10;0.98;;;;;;;7.47;70.63;102223.72;5031636;28;20033;-79
2022/01/29 06:48:03;;;;;;;1.90;0.77;;;;;;;7.59;70.50;102222.19;5035807;28;20553;-79
2022/01/29 06:50:29;;;;;;;1.85;0.80;;;;;;;7.59;69.42;102219.59;5030922;28;20025;-79
2022/01/29 06:52:55;;;;;;;2.22;0.80;;;;;;;7.51;70.70;102216.03;5028205;28;20041;-79
2022/01/29 06:55:22;;;;;;;2.25;0.98;;;;;;;7.60;70.16;102217.88;5030170;28;20045;-79
2022/01/29 06:57:47;;;;;;;2.58;1.00;;;;;;;7.60;70.10;102220.47;5031664;28;20044;-79
2022/01/29 07:00:13;;;;;;;1.33;0.68;;;;;;;7.60;70.79;102223.06;5030160;28;20032;-79
2022/01/29 07:02:39;;;;;;;1.17;0.60;;;;;;;7.56;70.09;102227.31;5035183;28;20034;-79
2022/01/29 07:05:07;;;;;;;2.25;0.70;;;;;;;7.53;70.85;102211.75;5037093;28;20040;-79
2022/01/29 07:07:32;;;;;;;0.57;0.57;;;;;;;7.57;70.30;102208.38;5037638;28;21574;-79
2022/01/29 07:09:58;;;;;;;0.95;0.75;;;;;;;7.58;70.72;102209.25;5027844;28;20041;-79
2022/01/29 07:12:24;;;;;;;1.38;0.60;;;;;;;7.48;71.06;102210.81;5028789;28;20116;-79
2022/01/29 07:14:50;;;;;;;1.10;0.63;;;;;;;7.54;70.38;102205.75;5032479;28;20040;-79
2022/01/29 07:17:17;;;;;;;1.70;0.90;;;;;;;7.53;70.51;102210.88;5040702;28;20478;-79
2022/01/29 07:19:46;;;;;;;1.58;0.70;;;;;;;7.46;70.04;102203.91;5030179;28;20037;-79
2022/01/29 07:22:12;;;;;;;1.85;1.10;;;;;;;7.54;71.18;102197.13;5037967;28;20048;-79
2022/01/29 07:24:38;;;;;;;1.83;1.02;;;;;;;7.46;70.67;102206.47;5038223;28;20490;-79
2022/01/29 07:27:05;;;;;;;1.98;1.05;;;;;;;7.52;70.62;102204.00;5039526;28;20033;-79
2022/01/29 07:29:31;;;;;;;1.42;0.70;;;;;;;7.51;70.37;102192.78;5035189;28;20497;-79
2022/01/29 07:31:56;;;;;;;1.65;0.80;;;;;;;7.53;70.71;102204.00;5031381;28;20051;-79
2022/01/29 07:34:23;;;;;;;1.10;0.80;;;;;;;7.56;70.02;102192.81;5037842;28;20113;-79
2022/01/29 07:36:50;;;;;;;2.42;1.00;;;;;;;7.55;69.83;102197.13;5031442;28;20536;-79
2022/01/29 07:39:16;;;;;;;0.73;0.57;;;;;;;7.55;70.00;102197.13;5022186;28;20120;-79
2022/01/29 07:41:41;;;;;;;1.92;0.95;;;;;;;7.58;70.91;102197.16;5030756;28;20120;-78
2022/01/29 07:44:07;;;;;;;3.80;1.00;;;;;;;7.66;70.79;102190.41;5038733;28;20021;-79
2022/01/29 07:46:32;;;;;;;2.55;1.42;;;;;;;7.64;69.59;102181.72;5033734;28;20112;-79
2022/01/29 07:48:58;;;;;;;2.50;1.50;;;;;;;7.52;70.94;102176.38;5033987;28;20438;-79
2022/01/29 07:51:23;;;;;;;2.03;1.02;;;;;;;7.58;70.38;102179.06;5031584;28;20037;-79
2022/01/29 07:53:49;;;;;;;1.70;1.10;;;;;;;7.59;69.63;102178.22;5031759;28;20053;-79
2022/01/29 07:56:14;;;;;;;1.30;0.60;;;;;;;7.61;69.62;102181.69;5038082;28;20052;-79
2022/01/29 07:58:40;;;;;;;1.23;0.77;;;;;;;7.54;70.59;102182.47;5038332;28;20052;-79
2022/01/29 08:01:05;;;;;;;1.35;0.82;;;;;;;7.58;69.56;102183.38;5041648;28;20049;-79
2022/01/29 08:03:30;;;;;;;1.00;0.73;;;;;;;7.59;70.48;102187.69;5034225;28;20037;-79
2022/01/29 08:05:56;;;;;;;2.42;0.90;;;;;;;7.62;70.52;102179.97;5035999;28;20494;-79
2022/01/29 08:08:21;;;;;;;3.38;1.10;;;;;;;7.63;70.87;102186.91;5016027;28;20315;-79
2022/01/29 08:10:48;;;;;;;3.35;1.30;;;;;;;7.73;69.80;102191.34;5030010;28;20529;-79
2022/01/29 08:13:13;;;;;;;2.58;1.58;;;;;;;7.61;70.96;102189.44;5037654;28;20033;-79
2022/01/29 08:15:39;;;;;;;2.53;1.50;;;;;;;7.74;69.93;102182.72;5033088;28;20037;-79
2022/01/29 08:18:05;;;;;;;3.53;1.70;;;;;;;7.60;69.99;102187.72;5033380;28;20065;-79
2022/01/29 08:20:31;;;;;;;3.67;1.65;;;;;;;7.66;70.41;102192.09;5039094;28;20056;-79
2022/01/29 08:22:56;;;;;;;2.90;1.60;;;;;;;7.61;71.03;102192.03;5038706;28;20045;-79
2022/01/29 08:25:22;;;;;;;2.10;1.13;;;;;;;7.72;70.92;102191.31;5043767;28;20032;-79
2022/01/29 08:27:47;;;;;;;1.40;1.05;;;;;;;7.72;70.98;102188.72;5034613;28;20041;-79
2022/01/29 08:30:13;;;;;;;3.08;1.27;;;;;;;7.74;70.27;102189.63;5036030;28;20044;-79
2022/01/29 08:32:42;;;;;;;1.55;1.23;;;;;;;7.72;70.83;102184.44;5035920;28;20041;-79
2022/01/29 08:35:13;;;;;;;1.67;1.05;;;;;;;7.75;71.33;102181.88;5039833;28;20552;-79
2022/01/29 08:37:39;;;;;;;2.83;1.17;;;;;;;7.73;71.21;102186.19;5037950;28;20433;-79
2022/01/29 08:40:06;;;;;;;1.27;0.90;;;;;;;7.82;70.84;102183.69;5032694;28;20124;-79
2022/01/29 08:42:31;;;;;;;2.90;0.90;;;;;;;7.80;70.36;102176.75;5032115;28;20445;-79
2022/01/29 08:44:57;;;;;;;1.17;0.65;;;;;;;7.86;70.17;102176.84;5043213;28;20033;-79
2022/01/29 08:47:22;;;;;;;2.15;0.77;;;;;;;7.86;69.23;102175.13;5036777;28;20055;-79
2022/01/29 08:49:48;;;;;;;1.30;0.90;;;;;;;7.83;71.41;102172.50;5037548;28;20044;-79
2022/01/29 08:52:14;;;;;;;1.42;0.70;;;;;;;7.89;70.05;102172.56;5041036;28;20030;-79
2022/01/29 08:54:39;;;;;;;1.38;1.05;;;;;;;7.91;70.27;102160.53;5041628;28;20039;-79
2022/01/29 08:57:05;;;;;;;0.70;0.63;;;;;;;7.93;69.42;102165.72;5036755;28;20047;-79
2022/01/29 08:59:30;;;;;;;0.45;0.45;;;;;;;7.99;70.60;102158.03;5031731;28;20075;-79
2022/01/29 09:01:56;;;;;;;1.55;0.80;;;;;;;7.97;70.28;102149.41;5036748;28;20640;-79
2022/01/29 09:04:21;;;;;;;2.78;1.05;;;;;;;7.98;70.59;102149.41;5030169;28;20087;-79
2022/01/29 09:06:47;;;;;;;0.98;0.70;;;;;;;8.15;68.55;102147.00;5051369;28;20120;-79
2022/01/29 09:09:12;;;;;;;0.80;0.70;;;;;;;8.05;68.61;102148.63;5021536;28;20617;-79
2022/01/29 09:11:38;;;;;;;1.63;1.08;;;;;;;7.99;70.14;102150.28;5036883;28;20130;-79
2022/01/29 09:14:03;;;;;;;2.00;1.20;;;;;;;8.11;69.78;102150.41;5036757;28;20073;-79
2022/01/29 09:16:29;;;;;;;3.25;1.48;;;;;;;8.17;69.39;102145.31;5032413;28;20045;-79
2022/01/29 09:18:54;;;;;;;3.35;2.03;;;;;;;8.04;69.66;102143.44;5033824;28;20506;-79
2022/01/29 09:21:20;;;;;;;2.28;1.02;;;;;;;8.10;69.00;102141.78;5035359;28;20179;-79
2022/01/29 09:23:45;;;;;;;1.17;0.85;;;;;;;8.14;69.86;102140.09;5037982;28;20108;-79
2022/01/29 09:26:11;;;;;;;1.42;0.68;;;;;;;8.18;68.38;102124.59;5036681;28;20022;-79
2022/01/29 09:28:36;;;;;;;1.55;0.93;;;;;;;8.23;69.09;102125.53;5029623;28;20390;-79
2022/01/29 09:31:02;;;;;;;1.05;0.60;;;;;;;8.20;69.83;102122.03;5028365;28;20098;-79
2022/01/29 09:33:27;;;;;;;1.25;0.70;;;;;;;8.14;68.53;102109.91;5038073;28;20441;-79
2022/01/29 09:35:53;;;;;;;1.98;1.10;;;;;;;8.32;68.02;102105.75;5036957;28;20029;-79
2022/01/29 09:38:18;;;;;;;1.38;0.77;;;;;;;8.23;68.19;102115.19;5039347;28;20025;-79
2022/01/29 09:40:44;;;;;;;2.55;0.80;;;;;;;8.27;67.76;102117.81;5038959;28;20049;-79
2022/01/29 09:43:11;;;;;;;1.92;1.00;;;;;;;8.29;68.56;102111.78;5038131;28;20029;-79
2022/01/29 09:45:37;;;;;;;1.67;0.80;;;;;;;8.31;69.15;102116.97;5034420;28;20040;-79
2022/01/29 09:48:04;;;;;;;1.98;0.88;;;;;;;8.37;68.54;102106.69;5033196;28;20033;-79
2022/01/29 09:50:36;;;;;;;2.17;0.73;;;;;;;8.41;68.61;102108.47;5029732;28;20022;-79
2022/01/29 09:53:03;;;;;;;1.48;0.68;;;;;;;8.55;67.96;102105.16;5046003;28;20516;-79
2022/01/29 09:55:29;;;;;;;2.40;0.90;;;;;;;8.54;68.04;102106.00;5028620;28;20037;-79
2022/01/29 09:57:57;;;;;;;1.75;0.80;;;;;;;8.61;68.86;102097.44;5028640;28;20038;-79
2022/01/29 10:00:22;;;;;;;1.45;0.90;;;;;;;8.66;67.71;102087.09;5031389;28;20091;-79
2022/01/29 10:03:19;;;;;;;2.67;1.30;;;;;;;8.73;68.11;102089.75;5040738;28;20112;-79
2022/01/29 10:05:51;;;;;;;1.45;0.75;;;;;;;8.78;66.71;102082.88;5022542;28;20448;-79
2022/01/29 10:08:18;;;;;;;1.92;1.00;;;;;;;8.71;67.85;102083.69;5025995;28;20405;-79
2022/01/29 10:10:52;;;;;;;1.95;1.08;;;;;;;8.70;67.89;102081.09;5025225;28;20026;-79
2022/01/29 10:13:34;;;;;;;1.03;0.80;;;;;;;8.78;67.53;102085.47;5049052;28;20450;-79
2022/01/29 10:16:20;;;;;;;2.08;0.90;;;;;;;8.85;65.53;102090.69;5034045;28;20037;-79
2022/01/29 10:19:06;;;;;;;2.00;0.65;;;;;;;8.85;66.21;102094.16;5036384;28;20437;-79
2022/01/29 10:21:46;;;;;;;1.80;0.90;;;;;;;8.87;66.39;102084.66;5042561;28;20249;-79
2022/01/29 10:24:17;;;;;;;2.42;0.77;;;;;;;8.87;67.51;102087.25;5030056;28;20037;-79
2022/01/29 10:26:45;;;;;;;1.08;0.82;;;;;;;8.94;66.25;102083.00;5029676;28;20116;-79
2022/01/29 10:29:19;;;;;;;1.17;0.82;;;;;;;8.87;67.08;102082.06;5035543;28;20386;-79
2022/01/29 10:31:47;;;;;;;1.55;1.27;;;;;;;9.01;66.78;102077.84;5031933;28;20033;-79
2022/01/29 10:34:16;;;;;;;3.35;1.10;;;;;;;8.96;67.87;102086.44;5036047;28;20034;-79
2022/01/29 10:36:42;;;;;;;1.70;0.80;;;;;;;9.04;66.43;102083.03;5027514;28;20124;-79
2022/01/29 10:39:07;;;;;;;2.75;1.10;;;;;;;9.01;65.96;102075.25;5027229;28;20409;-79
2022/01/29 10:41:33;;;;;;;1.00;0.70;;;;;;;8.94;66.75;102076.09;5039383;28;20017;-79
2022/01/29 10:44:15;;;;;;;1.00;0.77;;;;;;;9.05;66.14;102070.94;5033523;28;20446;-79
2022/01/29 10:46:47;;;;;;;0.85;0.70;;;;;;;9.06;66.38;102080.47;5030594;28;20026;-79
2022/01/29 10:49:34;;;;;;;0.90;0.47;;;;;;;9.14;66.13;102078.78;5028129;28;20037;-80
2022/01/29 10:52:14;;;;;;;1.05;0.68;;;;;;;9.10;65.62;102082.22;5023818;28;20037;-79
2022/01/29 10:54:42;;;;;;;0.45;0.45;;;;;;;9.12;65.61;102067.56;5030924;28;20088;-79
2022/01/29 10:57:18;;;;;;;0.40;0.40;;;;;;;9.20;66.09;102058.94;5030022;28;20075;-79
2022/01/29 10:59:48;;;;;;;0.52;0.50;;;;;;;9.17;65.42;102047.69;5032871;28;20037;-79
2022/01/29 11:02:15;;;;;;;1.75;0.80;;;;;;;9.22;65.20;102041.66;5026309;28;20556;-79
2022/01/29 11:04:42;;;;;;;0.30;0.30;;;;;;;9.22;65.98;102045.97;5037389;28;20034;-79
2022/01/29 11:07:14;;;;;;;0.55;0.40;;;;;;;9.20;65.92;102040.81;5036245;28;20393;-80
2022/01/29 11:09:42;;;;;;;0.90;0.40;;;;;;;9.30;65.30;102027.03;5030866;28;20034;-79
2022/01/29 11:12:09;;;;;;;0.73;0.40;;;;;;;9.40;64.73;102020.13;5034173;28;20030;-79
2022/01/29 11:14:35;;;;;;;0.52;0.43;;;;;;;9.39;64.34;102027.94;5032553;28;20014;-79
2022/01/29 11:17:02;;;;;;;0.30;0.30;;;;;;;9.36;64.74;102010.63;5043471;28;20044;-79
2022/01/29 11:19:28;;;;;;;0.40;0.40;;;;;;;9.38;64.91;102010.63;5031085;28;20033;-79
2022/01/29 11:21:57;;;;;;;1.85;0.30;;;;;;;9.51;65.44;102007.22;5030817;28;20375;-79
2022/01/29 11:24:25;;;;;;;0.43;0.40;;;;;;;9.43;65.97;101993.34;5036535;28;20517;-79
2022/01/29 11:26:52;;;;;;;0.52;0.40;;;;;;;9.43;65.07;101988.16;5042991;28;20032;-79
2022/01/29 11:29:28;;;;;;;0.30;0.30;;;;;;;9.43;65.55;102004.59;5040512;28;20098;-80
2022/01/29 11:32:22;;;;;;;0.30;0.30;;;;;;;9.43;64.70;102001.13;5034186;28;20497;-80
2022/01/29 11:35:04;;;;;;;0.20;0.20;;;;;;;9.41;64.50;101992.47;5035893;28;20049;-80
2022/01/29 11:37:54;;;;;;;1.33;0.50;;;;;;;9.44;65.46;101997.69;5034991;28;20121;-79
2022/01/29 11:40:19;;;;;;;0.80;0.50;;;;;;;9.37;65.45;101991.59;5024900;28;20119;-79
2022/01/29 11:42:54;;;;;;;0.20;0.20;;;;;;;9.35;66.36;101990.75;5034000;28;20425;-79
2022/01/29 11:46:15;;;;;;;0.40;0.20;;;;;;;9.46;65.67;101978.66;5032812;28;20040;-80
2022/01/29 11:48:52;;;;;;;0.30;0.30;;;;;;;9.38;66.28;101979.50;5034350;28;20132;-79